sensor_id;sensor_type;location;lat;lon;timestamp;temperature;humidity
29403;DHT22;16382;59.942;30.472;2023-05-25T00:01:00;14.50;99.90
29403;DHT22;16382;59.942;30.472;2023-05-25T00:03:28;14.50;99.90
29403;DHT22;16382;59.942;30.472;2023-05-25T00:05:56;14.50;99.90
29403;DHT22;16382;59.942;30.472;2023-05-25T00:08:26;14.50;99.90
29403;DHT22;16382;59.942;30.472;2023-05-25T00:10:54;14.40;99.90
29403;DHT22;16382;59.942;30.472;2023-05-25T00:13:22;14.40;99.90
29403;DHT22;16382;59.942;30.472;2023-05-25T00:15:49;14.40;99.90
29403;DHT22;16382;59.942;30.472;2023-05-25T00:18:17;14.40;99.90
29403;DHT22;16382;59.942;30.472;2023-05-25T00:20:44;14.40;99.90
29403;DHT22;16382;59.942;30.472;2023-05-25T00:23:12;14.50;99.90
29403;DHT22;16382;59.942;30.472;2023-05-25T00:25:39;14.60;99.90
29403;DHT22;16382;59.942;30.472;2023-05-25T00:28:09;14.70;99.90
29403;DHT22;16382;59.942;30.472;2023-05-25T00:30:36;14.80;99.90
29403;DHT22;16382;59.942;30.472;2023-05-25T00:33:04;14.90;99.90
29403;DHT22;16382;59.942;30.472;2023-05-25T00:35:31;15.00;99.90
29403;DHT22;16382;59.942;30.472;2023-05-25T00:37:59;15.10;99.90
29403;DHT22;16382;59.942;30.472;2023-05-25T00:40:26;15.20;99.90
29403;DHT22;16382;59.942;30.472;2023-05-25T00:42:54;15.20;99.90
29403;DHT22;16382;59.942;30.472;2023-05-25T00:45:23;15.20;99.90
29403;DHT22;16382;59.942;30.472;2023-05-25T00:47:52;15.10;99.90
29403;DHT22;16382;59.942;30.472;2023-05-25T00:50:29;15.00;99.90
29403;DHT22;16382;59.942;30.472;2023-05-25T00:53:03;15.00;99.90
29403;DHT22;16382;59.942;30.472;2023-05-25T00:55:34;14.90;99.90
29403;DHT22;16382;59.942;30.472;2023-05-25T00:58:07;14.80;99.90
29403;DHT22;16382;59.942;30.472;2023-05-25T01:00:36;14.80;99.90
29403;DHT22;16382;59.942;30.472;2023-05-25T01:03:11;14.80;99.90
29403;DHT22;16382;59.942;30.472;2023-05-25T01:05:45;14.80;99.90
29403;DHT22;16382;59.942;30.472;2023-05-25T01:08:16;14.80;99.90
29403;DHT22;16382;59.942;30.472;2023-05-25T01:10:48;14.80;99.90
29403;DHT22;16382;59.942;30.472;2023-05-25T01:13:17;14.70;99.90
29403;DHT22;16382;59.942;30.472;2023-05-25T01:15:49;14.70;99.90
29403;DHT22;16382;59.942;30.472;2023-05-25T01:18:17;14.80;99.90
29403;DHT22;16382;59.942;30.472;2023-05-25T01:20:54;14.70;99.90
29403;DHT22;16382;59.942;30.472;2023-05-25T01:23:32;14.80;99.90
29403;DHT22;16382;59.942;30.472;2023-05-25T01:26:05;14.80;99.90
29403;DHT22;16382;59.942;30.472;2023-05-25T01:28:39;14.80;99.90
29403;DHT22;16382;59.942;30.472;2023-05-25T01:31:08;14.80;99.90
29403;DHT22;16382;59.942;30.472;2023-05-25T01:33:36;14.80;99.90
29403;DHT22;16382;59.942;30.472;2023-05-25T01:36:06;14.80;99.90
29403;DHT22;16382;59.942;30.472;2023-05-25T01:38:34;14.80;99.90
29403;DHT22;16382;59.942;30.472;2023-05-25T01:41:03;14.80;99.90
29403;DHT22;16382;59.942;30.472;2023-05-25T01:43:30;14.90;99.90
29403;DHT22;16382;59.942;30.472;2023-05-25T01:46:05;14.90;99.90
29403;DHT22;16382;59.942;30.472;2023-05-25T01:48:44;14.90;99.90
29403;DHT22;16382;59.942;30.472;2023-05-25T01:51:23;14.90;99.90
29403;DHT22;16382;59.942;30.472;2023-05-25T01:53:57;15.00;99.90
29403;DHT22;16382;59.942;30.472;2023-05-25T01:56:28;15.00;99.90
29403;DHT22;16382;59.942;30.472;2023-05-25T01:58:58;15.10;99.90
29403;DHT22;16382;59.942;30.472;2023-05-25T02:01:28;15.10;99.90
29403;DHT22;16382;59.942;30.472;2023-05-25T02:03:57;15.10;99.90
29403;DHT22;16382;59.942;30.472;2023-05-25T02:06:26;15.20;99.90
29403;DHT22;16382;59.942;30.472;2023-05-25T02:08:54;15.20;99.90
29403;DHT22;16382;59.942;30.472;2023-05-25T02:11:21;15.20;99.90
29403;DHT22;16382;59.942;30.472;2023-05-25T02:13:50;15.20;99.90
29403;DHT22;16382;59.942;30.472;2023-05-25T02:16:18;15.20;99.90
29403;DHT22;16382;59.942;30.472;2023-05-25T02:18:45;15.20;99.90
29403;DHT22;16382;59.942;30.472;2023-05-25T02:21:15;15.10;99.90
29403;DHT22;16382;59.942;30.472;2023-05-25T02:23:44;15.00;99.90
29403;DHT22;16382;59.942;30.472;2023-05-25T02:26:12;15.00;99.90
29403;DHT22;16382;59.942;30.472;2023-05-25T02:28:42;15.00;99.90
29403;DHT22;16382;59.942;30.472;2023-05-25T02:31:09;15.00;99.90
29403;DHT22;16382;59.942;30.472;2023-05-25T02:33:36;15.00;99.90
29403;DHT22;16382;59.942;30.472;2023-05-25T02:36:04;15.00;99.90
29403;DHT22;16382;59.942;30.472;2023-05-25T02:38:32;15.10;99.90
29403;DHT22;16382;59.942;30.472;2023-05-25T02:41:01;15.00;99.90
29403;DHT22;16382;59.942;30.472;2023-05-25T02:43:28;15.00;99.90
29403;DHT22;16382;59.942;30.472;2023-05-25T02:45:57;14.90;99.90
29403;DHT22;16382;59.942;30.472;2023-05-25T02:48:24;14.80;99.90
29403;DHT22;16382;59.942;30.472;2023-05-25T02:50:55;14.70;99.90
29403;DHT22;16382;59.942;30.472;2023-05-25T02:53:22;14.70;99.90
29403;DHT22;16382;59.942;30.472;2023-05-25T02:55:50;14.70;99.90
29403;DHT22;16382;59.942;30.472;2023-05-25T02:58:23;14.70;99.90
29403;DHT22;16382;59.942;30.472;2023-05-25T03:01:02;14.70;99.90
29403;DHT22;16382;59.942;30.472;2023-05-25T03:03:31;14.60;99.90
29403;DHT22;16382;59.942;30.472;2023-05-25T03:05:58;14.70;99.90
29403;DHT22;16382;59.942;30.472;2023-05-25T03:08:26;14.70;99.90
29403;DHT22;16382;59.942;30.472;2023-05-25T03:10:54;14.90;99.90
29403;DHT22;16382;59.942;30.472;2023-05-25T03:13:23;15.00;99.90
29403;DHT22;16382;59.942;30.472;2023-05-25T03:15:50;15.20;99.90
29403;DHT22;16382;59.942;30.472;2023-05-25T03:18:18;15.30;99.90
29403;DHT22;16382;59.942;30.472;2023-05-25T03:20:46;15.40;99.90
29403;DHT22;16382;59.942;30.472;2023-05-25T03:23:13;15.50;99.90
29403;DHT22;16382;59.942;30.472;2023-05-25T03:25:41;15.60;99.90
29403;DHT22;16382;59.942;30.472;2023-05-25T03:28:09;15.70;99.90
29403;DHT22;16382;59.942;30.472;2023-05-25T03:30:39;15.80;99.90
29403;DHT22;16382;59.942;30.472;2023-05-25T03:33:08;15.90;99.90
29403;DHT22;16382;59.942;30.472;2023-05-25T03:35:42;15.90;99.90
29403;DHT22;16382;59.942;30.472;2023-05-25T03:38:09;16.00;99.90
29403;DHT22;16382;59.942;30.472;2023-05-25T03:40:37;16.10;99.90
29403;DHT22;16382;59.942;30.472;2023-05-25T03:43:04;16.20;99.90
29403;DHT22;16382;59.942;30.472;2023-05-25T03:45:32;16.20;99.90
29403;DHT22;16382;59.942;30.472;2023-05-25T03:48:01;16.30;99.90
29403;DHT22;16382;59.942;30.472;2023-05-25T03:50:30;16.30;99.90
29403;DHT22;16382;59.942;30.472;2023-05-25T03:52:59;16.40;99.90
29403;DHT22;16382;59.942;30.472;2023-05-25T03:55:26;16.50;99.90
29403;DHT22;16382;59.942;30.472;2023-05-25T03:57:54;16.60;99.90
29403;DHT22;16382;59.942;30.472;2023-05-25T04:00:21;16.60;99.90
29403;DHT22;16382;59.942;30.472;2023-05-25T04:02:49;16.70;99.90
29403;DHT22;16382;59.942;30.472;2023-05-25T04:05:18;16.80;99.90
29403;DHT22;16382;59.942;30.472;2023-05-25T04:07:46;16.90;99.90
29403;DHT22;16382;59.942;30.472;2023-05-25T04:10:13;17.00;99.90
29403;DHT22;16382;59.942;30.472;2023-05-25T04:12:41;17.00;99.90
29403;DHT22;16382;59.942;30.472;2023-05-25T04:15:09;17.10;99.90
29403;DHT22;16382;59.942;30.472;2023-05-25T04:17:56;17.10;99.90
29403;DHT22;16382;59.942;30.472;2023-05-25T04:20:26;17.30;99.90
29403;DHT22;16382;59.942;30.472;2023-05-25T04:22:54;17.40;99.90
29403;DHT22;16382;59.942;30.472;2023-05-25T04:25:22;17.50;99.90
29403;DHT22;16382;59.942;30.472;2023-05-25T04:27:49;17.60;99.90
29403;DHT22;16382;59.942;30.472;2023-05-25T04:30:30;17.70;99.90
29403;DHT22;16382;59.942;30.472;2023-05-25T04:33:08;17.70;99.90
29403;DHT22;16382;59.942;30.472;2023-05-25T04:35:56;17.90;99.90
29403;DHT22;16382;59.942;30.472;2023-05-25T04:38:24;18.00;99.90
29403;DHT22;16382;59.942;30.472;2023-05-25T04:40:52;18.10;99.90
29403;DHT22;16382;59.942;30.472;2023-05-25T04:43:20;18.20;99.90
29403;DHT22;16382;59.942;30.472;2023-05-25T04:45:52;18.20;99.90
29403;DHT22;16382;59.942;30.472;2023-05-25T04:48:19;18.30;99.90
29403;DHT22;16382;59.942;30.472;2023-05-25T04:50:49;18.40;99.90
29403;DHT22;16382;59.942;30.472;2023-05-25T04:53:19;18.50;99.90
29403;DHT22;16382;59.942;30.472;2023-05-25T04:55:47;18.60;99.90
29403;DHT22;16382;59.942;30.472;2023-05-25T04:58:29;18.70;99.90
29403;DHT22;16382;59.942;30.472;2023-05-25T05:00:58;18.80;99.90
29403;DHT22;16382;59.942;30.472;2023-05-25T05:03:26;18.90;99.90
29403;DHT22;16382;59.942;30.472;2023-05-25T05:05:53;19.00;99.90
29403;DHT22;16382;59.942;30.472;2023-05-25T05:08:26;19.10;99.90
29403;DHT22;16382;59.942;30.472;2023-05-25T05:10:54;19.30;99.90
29403;DHT22;16382;59.942;30.472;2023-05-25T05:13:23;19.40;99.90
29403;DHT22;16382;59.942;30.472;2023-05-25T05:15:52;19.60;99.90
29403;DHT22;16382;59.942;30.472;2023-05-25T05:18:23;19.80;99.90
29403;DHT22;16382;59.942;30.472;2023-05-25T05:20:51;20.00;99.90
29403;DHT22;16382;59.942;30.472;2023-05-25T05:23:19;20.20;99.90
29403;DHT22;16382;59.942;30.472;2023-05-25T05:25:48;20.40;99.90
29403;DHT22;16382;59.942;30.472;2023-05-25T05:28:16;20.60;99.90
29403;DHT22;16382;59.942;30.472;2023-05-25T05:30:46;20.90;99.90
29403;DHT22;16382;59.942;30.472;2023-05-25T05:33:14;21.20;99.90
29403;DHT22;16382;59.942;30.472;2023-05-25T05:35:46;21.60;99.90
29403;DHT22;16382;59.942;30.472;2023-05-25T05:38:19;22.20;99.90
29403;DHT22;16382;59.942;30.472;2023-05-25T05:40:49;22.70;98.90
29403;DHT22;16382;59.942;30.472;2023-05-25T05:43:23;23.20;96.40
29403;DHT22;16382;59.942;30.472;2023-05-25T05:45:52;23.80;93.10
29403;DHT22;16382;59.942;30.472;2023-05-25T05:48:19;24.20;92.30
29403;DHT22;16382;59.942;30.472;2023-05-25T05:50:47;24.60;90.80
29403;DHT22;16382;59.942;30.472;2023-05-25T05:53:14;24.90;88.00
29403;DHT22;16382;59.942;30.472;2023-05-25T05:55:42;25.40;83.70
29403;DHT22;16382;59.942;30.472;2023-05-25T05:58:11;25.90;78.60
29403;DHT22;16382;59.942;30.472;2023-05-25T06:00:39;25.90;74.30
29403;DHT22;16382;59.942;30.472;2023-05-25T06:03:06;25.80;73.80
29403;DHT22;16382;59.942;30.472;2023-05-25T06:05:35;25.50;72.50
29403;DHT22;16382;59.942;30.472;2023-05-25T06:08:03;25.50;72.60
29403;DHT22;16382;59.942;30.472;2023-05-25T06:10:36;25.80;70.90
29403;DHT22;16382;59.942;30.472;2023-05-25T06:13:04;26.00;70.00
29403;DHT22;16382;59.942;30.472;2023-05-25T06:15:36;26.50;70.30
29403;DHT22;16382;59.942;30.472;2023-05-25T06:18:10;27.10;67.90
29403;DHT22;16382;59.942;30.472;2023-05-25T06:20:38;27.70;66.40
29403;DHT22;16382;59.942;30.472;2023-05-25T06:23:06;28.10;66.40
29403;DHT22;16382;59.942;30.472;2023-05-25T06:25:36;28.50;62.80
29403;DHT22;16382;59.942;30.472;2023-05-25T06:28:05;28.70;61.80
29403;DHT22;16382;59.942;30.472;2023-05-25T06:30:33;28.70;61.80
29403;DHT22;16382;59.942;30.472;2023-05-25T06:33:02;29.00;61.10
29403;DHT22;16382;59.942;30.472;2023-05-25T06:35:30;29.20;58.40
29403;DHT22;16382;59.942;30.472;2023-05-25T06:37:58;29.40;59.10
29403;DHT22;16382;59.942;30.472;2023-05-25T06:40:29;29.70;58.20
29403;DHT22;16382;59.942;30.472;2023-05-25T06:42:57;30.10;58.20
29403;DHT22;16382;59.942;30.472;2023-05-25T06:45:50;30.60;56.20
29403;DHT22;16382;59.942;30.472;2023-05-25T06:48:19;30.80;55.80
29403;DHT22;16382;59.942;30.472;2023-05-25T06:50:46;31.00;54.40
29403;DHT22;16382;59.942;30.472;2023-05-25T06:53:14;30.90;55.00
29403;DHT22;16382;59.942;30.472;2023-05-25T06:55:42;30.70;55.00
29403;DHT22;16382;59.942;30.472;2023-05-25T06:58:10;30.50;55.40
29403;DHT22;16382;59.942;30.472;2023-05-25T07:00:38;30.60;55.70
29403;DHT22;16382;59.942;30.472;2023-05-25T07:03:07;30.90;53.00
29403;DHT22;16382;59.942;30.472;2023-05-25T07:05:35;30.90;53.60
29403;DHT22;16382;59.942;30.472;2023-05-25T07:08:03;30.80;52.60
29403;DHT22;16382;59.942;30.472;2023-05-25T07:10:33;30.70;52.20
29403;DHT22;16382;59.942;30.472;2023-05-25T07:13:01;30.90;52.30
29403;DHT22;16382;59.942;30.472;2023-05-25T07:15:31;31.00;51.60
29403;DHT22;16382;59.942;30.472;2023-05-25T07:17:59;30.40;51.10
29403;DHT22;16382;59.942;30.472;2023-05-25T07:20:28;30.30;52.10
29403;DHT22;16382;59.942;30.472;2023-05-25T07:22:56;30.70;52.30
29403;DHT22;16382;59.942;30.472;2023-05-25T07:25:23;31.30;52.10
29403;DHT22;16382;59.942;30.472;2023-05-25T07:27:51;31.90;51.10
29403;DHT22;16382;59.942;30.472;2023-05-25T07:30:20;32.20;50.10
29403;DHT22;16382;59.942;30.472;2023-05-25T07:32:47;32.70;50.70
29403;DHT22;16382;59.942;30.472;2023-05-25T07:35:15;33.00;51.00
29403;DHT22;16382;59.942;30.472;2023-05-25T07:37:45;33.20;49.90
29403;DHT22;16382;59.942;30.472;2023-05-25T07:40:13;33.50;48.60
29403;DHT22;16382;59.942;30.472;2023-05-25T07:42:40;33.70;47.50
29403;DHT22;16382;59.942;30.472;2023-05-25T07:45:11;33.70;47.90
29403;DHT22;16382;59.942;30.472;2023-05-25T07:47:38;33.80;47.10
29403;DHT22;16382;59.942;30.472;2023-05-25T07:50:06;34.20;47.40
29403;DHT22;16382;59.942;30.472;2023-05-25T07:52:35;34.30;46.10
29403;DHT22;16382;59.942;30.472;2023-05-25T07:55:07;34.40;47.00
29403;DHT22;16382;59.942;30.472;2023-05-25T07:57:35;34.40;47.40
29403;DHT22;16382;59.942;30.472;2023-05-25T08:00:07;34.50;48.00
29403;DHT22;16382;59.942;30.472;2023-05-25T08:02:41;34.80;46.40
29403;DHT22;16382;59.942;30.472;2023-05-25T08:05:09;35.00;45.80
29403;DHT22;16382;59.942;30.472;2023-05-25T08:07:37;34.80;46.90
29403;DHT22;16382;59.942;30.472;2023-05-25T08:10:08;34.90;46.60
29403;DHT22;16382;59.942;30.472;2023-05-25T08:12:35;35.00;45.50
29403;DHT22;16382;59.942;30.472;2023-05-25T08:15:04;35.30;45.70
29403;DHT22;16382;59.942;30.472;2023-05-25T08:17:33;35.10;45.90
29403;DHT22;16382;59.942;30.472;2023-05-25T08:20:01;35.20;47.20
29403;DHT22;16382;59.942;30.472;2023-05-25T08:22:31;35.30;45.30
29403;DHT22;16382;59.942;30.472;2023-05-25T08:24:59;35.50;46.40
29403;DHT22;16382;59.942;30.472;2023-05-25T08:27:28;35.20;45.50
29403;DHT22;16382;59.942;30.472;2023-05-25T08:29:56;34.80;46.20
29403;DHT22;16382;59.942;30.472;2023-05-25T08:32:23;35.10;46.60
29403;DHT22;16382;59.942;30.472;2023-05-25T08:34:51;35.50;46.30
29403;DHT22;16382;59.942;30.472;2023-05-25T08:37:18;35.90;47.20
29403;DHT22;16382;59.942;30.472;2023-05-25T08:39:48;36.10;45.20
29403;DHT22;16382;59.942;30.472;2023-05-25T08:42:18;36.30;44.70
29403;DHT22;16382;59.942;30.472;2023-05-25T08:44:47;36.50;44.70
29403;DHT22;16382;59.942;30.472;2023-05-25T08:47:16;36.50;44.40
29403;DHT22;16382;59.942;30.472;2023-05-25T08:49:45;36.40;45.70
29403;DHT22;16382;59.942;30.472;2023-05-25T08:52:21;36.20;45.60
29403;DHT22;16382;59.942;30.472;2023-05-25T08:54:51;36.10;44.10
29403;DHT22;16382;59.942;30.472;2023-05-25T08:57:24;36.20;44.10
29403;DHT22;16382;59.942;30.472;2023-05-25T09:00:02;36.40;44.30
29403;DHT22;16382;59.942;30.472;2023-05-25T09:02:38;36.40;44.40
29403;DHT22;16382;59.942;30.472;2023-05-25T09:05:09;36.80;43.90
29403;DHT22;16382;59.942;30.472;2023-05-25T09:07:36;37.00;43.80
29403;DHT22;16382;59.942;30.472;2023-05-25T09:10:04;37.20;43.70
29403;DHT22;16382;59.942;30.472;2023-05-25T09:12:35;37.10;44.60
29403;DHT22;16382;59.942;30.472;2023-05-25T09:15:07;37.10;42.90
29403;DHT22;16382;59.942;30.472;2023-05-25T09:17:37;37.20;43.20
29403;DHT22;16382;59.942;30.472;2023-05-25T09:20:08;37.10;42.50
29403;DHT22;16382;59.942;30.472;2023-05-25T09:22:39;37.20;42.50
29403;DHT22;16382;59.942;30.472;2023-05-25T09:25:12;37.20;42.30
29403;DHT22;16382;59.942;30.472;2023-05-25T09:27:41;37.30;42.40
29403;DHT22;16382;59.942;30.472;2023-05-25T09:30:11;37.30;43.30
29403;DHT22;16382;59.942;30.472;2023-05-25T09:32:39;37.20;42.40
29403;DHT22;16382;59.942;30.472;2023-05-25T09:35:07;37.20;42.40
29403;DHT22;16382;59.942;30.472;2023-05-25T09:37:35;37.10;43.00
29403;DHT22;16382;59.942;30.472;2023-05-25T09:40:04;36.90;42.90
29403;DHT22;16382;59.942;30.472;2023-05-25T09:42:34;37.00;42.70
29403;DHT22;16382;59.942;30.472;2023-05-25T09:45:02;37.50;43.90
29403;DHT22;16382;59.942;30.472;2023-05-25T09:47:36;37.80;41.90
29403;DHT22;16382;59.942;30.472;2023-05-25T09:50:05;38.00;42.50
29403;DHT22;16382;59.942;30.472;2023-05-25T09:52:34;38.30;41.90
29403;DHT22;16382;59.942;30.472;2023-05-25T09:55:08;38.50;41.00
29403;DHT22;16382;59.942;30.472;2023-05-25T09:57:38;38.60;40.30
29403;DHT22;16382;59.942;30.472;2023-05-25T10:00:06;38.40;41.80
29403;DHT22;16382;59.942;30.472;2023-05-25T10:02:40;38.50;41.00
29403;DHT22;16382;59.942;30.472;2023-05-25T10:05:08;38.60;40.80
29403;DHT22;16382;59.942;30.472;2023-05-25T10:07:36;38.10;40.60
29403;DHT22;16382;59.942;30.472;2023-05-25T10:10:06;37.40;41.30
29403;DHT22;16382;59.942;30.472;2023-05-25T10:12:34;37.10;42.60
29403;DHT22;16382;59.942;30.472;2023-05-25T10:15:04;36.60;41.70
29403;DHT22;16382;59.942;30.472;2023-05-25T10:17:35;36.00;42.00
29403;DHT22;16382;59.942;30.472;2023-05-25T10:20:06;35.60;42.70
29403;DHT22;16382;59.942;30.472;2023-05-25T10:22:39;35.70;42.50
29403;DHT22;16382;59.942;30.472;2023-05-25T10:25:17;36.40;43.10
29403;DHT22;16382;59.942;30.472;2023-05-25T10:27:55;37.20;41.00
29403;DHT22;16382;59.942;30.472;2023-05-25T10:30:25;37.90;39.70
29403;DHT22;16382;59.942;30.472;2023-05-25T10:32:54;38.30;40.10
29403;DHT22;16382;59.942;30.472;2023-05-25T10:35:24;38.60;37.50
29403;DHT22;16382;59.942;30.472;2023-05-25T10:37:53;38.90;37.70
29403;DHT22;16382;59.942;30.472;2023-05-25T10:40:21;39.20;37.20
29403;DHT22;16382;59.942;30.472;2023-05-25T10:42:51;39.40;37.10
29403;DHT22;16382;59.942;30.472;2023-05-25T10:45:19;38.90;36.50
29403;DHT22;16382;59.942;30.472;2023-05-25T10:47:46;37.70;38.10
29403;DHT22;16382;59.942;30.472;2023-05-25T10:50:21;36.40;37.90
29403;DHT22;16382;59.942;30.472;2023-05-25T10:52:58;35.60;39.40
29403;DHT22;16382;59.942;30.472;2023-05-25T10:55:27;35.30;39.80
29403;DHT22;16382;59.942;30.472;2023-05-25T10:58:07;35.20;40.40
29403;DHT22;16382;59.942;30.472;2023-05-25T11:00:35;35.30;40.20
29403;DHT22;16382;59.942;30.472;2023-05-25T11:03:03;35.70;40.30
29403;DHT22;16382;59.942;30.472;2023-05-25T11:05:38;35.90;40.60
29403;DHT22;16382;59.942;30.472;2023-05-25T11:08:12;35.60;40.80
29403;DHT22;16382;59.942;30.472;2023-05-25T11:10:56;35.00;40.80
29403;DHT22;16382;59.942;30.472;2023-05-25T11:13:43;35.40;41.10
29403;DHT22;16382;59.942;30.472;2023-05-25T11:16:22;36.80;40.10
29403;DHT22;16382;59.942;30.472;2023-05-25T11:19:14;38.00;38.90
29403;DHT22;16382;59.942;30.472;2023-05-25T11:21:55;38.90;37.10
29403;DHT22;16382;59.942;30.472;2023-05-25T11:24:23;38.70;37.40
29403;DHT22;16382;59.942;30.472;2023-05-25T11:26:53;38.00;36.80
29403;DHT22;16382;59.942;30.472;2023-05-25T11:29:30;36.60;38.30
29403;DHT22;16382;59.942;30.472;2023-05-25T11:32:01;35.20;39.60
29403;DHT22;16382;59.942;30.472;2023-05-25T11:34:29;34.40;40.30
29403;DHT22;16382;59.942;30.472;2023-05-25T11:36:59;34.30;39.70
29403;DHT22;16382;59.942;30.472;2023-05-25T11:39:30;34.10;39.80
29403;DHT22;16382;59.942;30.472;2023-05-25T11:42:02;34.30;40.70
29403;DHT22;16382;59.942;30.472;2023-05-25T11:44:34;34.30;41.20
29403;DHT22;16382;59.942;30.472;2023-05-25T11:47:05;33.80;40.70
29403;DHT22;16382;59.942;30.472;2023-05-25T11:49:39;33.40;41.20
29403;DHT22;16382;59.942;30.472;2023-05-25T11:52:17;33.80;42.30
29403;DHT22;16382;59.942;30.472;2023-05-25T11:54:47;34.90;41.20
29403;DHT22;16382;59.942;30.472;2023-05-25T11:57:15;35.80;39.80
29403;DHT22;16382;59.942;30.472;2023-05-25T11:59:47;36.20;39.20
29403;DHT22;16382;59.942;30.472;2023-05-25T12:02:16;36.40;38.90
29403;DHT22;16382;59.942;30.472;2023-05-25T12:04:51;36.90;38.90
29403;DHT22;16382;59.942;30.472;2023-05-25T12:07:31;37.60;38.40
29403;DHT22;16382;59.942;30.472;2023-05-25T12:10:04;37.90;37.30
29403;DHT22;16382;59.942;30.472;2023-05-25T12:12:42;38.10;37.70
29403;DHT22;16382;59.942;30.472;2023-05-25T12:15:11;38.10;37.80
29403;DHT22;16382;59.942;30.472;2023-05-25T12:17:41;37.50;38.00
29403;DHT22;16382;59.942;30.472;2023-05-25T12:20:10;36.70;38.90
29403;DHT22;16382;59.942;30.472;2023-05-25T12:22:43;36.20;39.40
29403;DHT22;16382;59.942;30.472;2023-05-25T12:25:12;35.70;39.20
29403;DHT22;16382;59.942;30.472;2023-05-25T12:27:41;34.30;39.40
29403;DHT22;16382;59.942;30.472;2023-05-25T12:30:10;33.70;39.30
29403;DHT22;16382;59.942;30.472;2023-05-25T12:32:53;33.20;40.10
29403;DHT22;16382;59.942;30.472;2023-05-25T12:35:25;32.30;41.20
29403;DHT22;16382;59.942;30.472;2023-05-25T12:38:09;32.40;42.40
29403;DHT22;16382;59.942;30.472;2023-05-25T12:40:37;32.30;43.30
29403;DHT22;16382;59.942;30.472;2023-05-25T12:43:05;32.90;42.80
29403;DHT22;16382;59.942;30.472;2023-05-25T12:45:32;33.90;41.70
29403;DHT22;16382;59.942;30.472;2023-05-25T12:48:00;34.50;41.60
29403;DHT22;16382;59.942;30.472;2023-05-25T12:50:28;34.80;40.50
29403;DHT22;16382;59.942;30.472;2023-05-25T12:53:00;35.00;40.20
29403;DHT22;16382;59.942;30.472;2023-05-25T12:55:32;35.40;40.30
29403;DHT22;16382;59.942;30.472;2023-05-25T12:58:01;35.80;40.80
29403;DHT22;16382;59.942;30.472;2023-05-25T13:00:31;36.30;38.30
29403;DHT22;16382;59.942;30.472;2023-05-25T13:03:01;36.00;39.10
29403;DHT22;16382;59.942;30.472;2023-05-25T13:05:31;35.60;39.20
29403;DHT22;16382;59.942;30.472;2023-05-25T13:08:03;35.40;40.00
29403;DHT22;16382;59.942;30.472;2023-05-25T13:10:36;35.70;39.90
29403;DHT22;16382;59.942;30.472;2023-05-25T13:13:04;36.20;39.90
29403;DHT22;16382;59.942;30.472;2023-05-25T13:15:32;36.50;39.80
29403;DHT22;16382;59.942;30.472;2023-05-25T13:17:59;35.70;40.00
29403;DHT22;16382;59.942;30.472;2023-05-25T13:20:27;33.60;42.60
29403;DHT22;16382;59.942;30.472;2023-05-25T13:22:57;31.60;45.00
29403;DHT22;16382;59.942;30.472;2023-05-25T13:25:25;30.00;47.50
29403;DHT22;16382;59.942;30.472;2023-05-25T13:27:54;29.00;49.50
29403;DHT22;16382;59.942;30.472;2023-05-25T13:30:25;28.70;50.50
29403;DHT22;16382;59.942;30.472;2023-05-25T13:32:53;28.40;51.50
29403;DHT22;16382;59.942;30.472;2023-05-25T13:35:21;28.30;52.20
29403;DHT22;16382;59.942;30.472;2023-05-25T13:38:02;28.10;52.30
29403;DHT22;16382;59.942;30.472;2023-05-25T13:40:29;28.10;52.50
29403;DHT22;16382;59.942;30.472;2023-05-25T13:42:58;28.10;52.70
29403;DHT22;16382;59.942;30.472;2023-05-25T13:45:26;27.90;52.90
29403;DHT22;16382;59.942;30.472;2023-05-25T13:47:53;27.70;53.00
29403;DHT22;16382;59.942;30.472;2023-05-25T13:50:21;27.60;53.00
29403;DHT22;16382;59.942;30.472;2023-05-25T13:52:48;27.60;53.20
29403;DHT22;16382;59.942;30.472;2023-05-25T13:55:16;27.50;53.50
29403;DHT22;16382;59.942;30.472;2023-05-25T13:57:43;27.20;53.60
29403;DHT22;16382;59.942;30.472;2023-05-25T14:00:13;26.80;54.10
29403;DHT22;16382;59.942;30.472;2023-05-25T14:02:41;26.30;54.60
29403;DHT22;16382;59.942;30.472;2023-05-25T14:05:09;26.00;55.90
29403;DHT22;16382;59.942;30.472;2023-05-25T14:07:38;25.90;56.30
29403;DHT22;16382;59.942;30.472;2023-05-25T14:10:09;25.80;56.30
29403;DHT22;16382;59.942;30.472;2023-05-25T14:12:37;25.70;57.20
29403;DHT22;16382;59.942;30.472;2023-05-25T14:15:06;25.70;58.10
29403;DHT22;16382;59.942;30.472;2023-05-25T14:17:36;25.60;57.80
29403;DHT22;16382;59.942;30.472;2023-05-25T14:20:21;25.40;58.60
29403;DHT22;16382;59.942;30.472;2023-05-25T14:22:51;25.30;58.40
29403;DHT22;16382;59.942;30.472;2023-05-25T14:25:19;25.10;58.90
29403;DHT22;16382;59.942;30.472;2023-05-25T14:27:47;24.90;60.00
29403;DHT22;16382;59.942;30.472;2023-05-25T14:30:14;24.80;59.90
29403;DHT22;16382;59.942;30.472;2023-05-25T14:32:43;24.80;60.50
29403;DHT22;16382;59.942;30.472;2023-05-25T14:35:11;24.80;60.50
29403;DHT22;16382;59.942;30.472;2023-05-25T14:37:38;24.90;60.80
29403;DHT22;16382;59.942;30.472;2023-05-25T14:40:10;25.00;61.00
29403;DHT22;16382;59.942;30.472;2023-05-25T14:42:39;25.00;60.90
29403;DHT22;16382;59.942;30.472;2023-05-25T14:45:07;24.90;60.50
29403;DHT22;16382;59.942;30.472;2023-05-25T14:47:36;24.80;61.30
29403;DHT22;16382;59.942;30.472;2023-05-25T14:50:08;24.80;61.10
29403;DHT22;16382;59.942;30.472;2023-05-25T14:52:42;24.60;60.50
29403;DHT22;16382;59.942;30.472;2023-05-25T14:55:10;24.50;60.90
29403;DHT22;16382;59.942;30.472;2023-05-25T14:57:37;24.40;61.10
29403;DHT22;16382;59.942;30.472;2023-05-25T15:00:06;24.20;61.30
29403;DHT22;16382;59.942;30.472;2023-05-25T15:02:34;24.10;61.70
29403;DHT22;16382;59.942;30.472;2023-05-25T15:05:02;24.00;62.40
29403;DHT22;16382;59.942;30.472;2023-05-25T15:07:32;23.90;63.40
29403;DHT22;16382;59.942;30.472;2023-05-25T15:09:59;23.80;63.30
29403;DHT22;16382;59.942;30.472;2023-05-25T15:12:30;23.70;64.00
29403;DHT22;16382;59.942;30.472;2023-05-25T15:14:58;23.60;64.90
29403;DHT22;16382;59.942;30.472;2023-05-25T15:17:28;23.60;65.40
29403;DHT22;16382;59.942;30.472;2023-05-25T15:19:58;23.70;65.00
29403;DHT22;16382;59.942;30.472;2023-05-25T15:22:26;23.70;65.20
29403;DHT22;16382;59.942;30.472;2023-05-25T15:24:57;23.70;64.70
29403;DHT22;16382;59.942;30.472;2023-05-25T15:27:25;23.50;65.20
29403;DHT22;16382;59.942;30.472;2023-05-25T15:29:53;23.40;66.40
29403;DHT22;16382;59.942;30.472;2023-05-25T15:32:21;23.20;66.20